createdAt,value
2022-12-09T00:00:51.655Z,2.41
2022-12-09T00:02:59.572Z,2.40
2022-12-09T00:05:05.148Z,2.38
2022-12-09T00:07:10.328Z,2.38
2022-12-09T00:09:18.189Z,2.40
2022-12-09T00:11:24.273Z,2.37
2022-12-09T00:13:30.002Z,2.33
2022-12-09T00:15:34.922Z,2.24
2022-12-09T00:17:40.000Z,2.23
2022-12-09T00:19:47.395Z,2.25
2022-12-09T00:21:52.426Z,2.28
2022-12-09T00:23:59.291Z,2.27
2022-12-09T00:26:04.212Z,2.29
2022-12-09T00:28:11.971Z,2.28
2022-12-09T00:30:17.219Z,2.24
2022-12-09T00:32:22.171Z,2.21
2022-12-09T00:34:27.166Z,2.19
2022-12-09T00:36:35.189Z,2.21
2022-12-09T00:38:40.997Z,2.20
2022-12-09T00:40:46.420Z,2.22
2022-12-09T00:42:51.233Z,2.19
2022-12-09T00:44:56.031Z,2.18
2022-12-09T00:47:01.769Z,2.15
2022-12-09T00:49:07.616Z,2.14
2022-12-09T00:51:16.585Z,2.11
2022-12-09T00:53:24.459Z,2.09
2022-12-09T00:55:29.651Z,2.07
2022-12-09T00:57:34.250Z,2.03
2022-12-09T00:59:39.532Z,1.98
2022-12-09T01:01:44.536Z,1.98
2022-12-09T01:03:49.361Z,1.94
2022-12-09T01:05:54.549Z,1.89
2022-12-09T01:07:59.875Z,1.90
2022-12-09T01:10:08.127Z,1.91
2022-12-09T01:12:13.108Z,1.90
2022-12-09T01:14:17.944Z,1.86
2022-12-09T01:16:26.658Z,1.87
2022-12-09T01:18:31.546Z,1.84
2022-12-09T01:20:37.333Z,1.83
2022-12-09T01:22:42.480Z,1.81
2022-12-09T01:24:47.983Z,1.80
2022-12-09T01:26:55.845Z,1.79
2022-12-09T01:29:01.012Z,1.79
2022-12-09T01:31:10.891Z,1.79
2022-12-09T01:33:18.650Z,1.80
2022-12-09T01:35:23.457Z,1.80
2022-12-09T01:37:28.442Z,1.79
2022-12-09T01:39:33.855Z,1.77
2022-12-09T01:41:38.861Z,1.75
2022-12-09T01:43:47.138Z,1.77
2022-12-09T01:45:53.056Z,1.78
2022-12-09T01:48:03.997Z,1.80
2022-12-09T01:50:10.775Z,1.82
2022-12-09T01:52:21.970Z,1.82
2022-12-09T01:54:27.452Z,1.82
2022-12-09T01:56:33.844Z,1.80
2022-12-09T01:58:39.950Z,1.79
2022-12-09T02:00:48.104Z,1.72
2022-12-09T02:02:55.036Z,1.65
2022-12-09T02:05:03.515Z,1.59
2022-12-09T02:07:13.382Z,1.52
2022-12-09T02:09:19.346Z,1.44
2022-12-09T02:11:37.034Z,1.39
2022-12-09T02:13:50.156Z,1.41
2022-12-09T02:16:04.409Z,1.41
2022-12-09T02:18:16.969Z,1.44
2022-12-09T02:20:29.981Z,1.47
2022-12-09T02:22:40.866Z,1.29
2022-12-09T02:24:58.051Z,1.28
2022-12-09T02:27:11.627Z,1.26
2022-12-09T02:29:32.457Z,1.23
2022-12-09T02:32:08.146Z,1.18
2022-12-09T02:34:20.348Z,1.08
2022-12-09T02:36:36.889Z,1.07
2022-12-09T02:38:45.081Z,1.11
2022-12-09T02:40:55.808Z,1.16
2022-12-09T02:43:06.562Z,1.20
2022-12-09T02:45:14.703Z,1.20
2022-12-09T02:47:26.819Z,1.26
2022-12-09T02:49:37.855Z,1.19
2022-12-09T02:51:46.372Z,1.13
2022-12-09T02:53:58.709Z,1.07
2022-12-09T02:56:05.825Z,1.05
2022-12-09T02:58:12.075Z,1.05
2022-12-09T03:00:18.568Z,1.06
2022-12-09T03:02:29.166Z,1.07
2022-12-09T03:04:36.842Z,1.07
2022-12-09T03:06:47.039Z,1.09
2022-12-09T03:09:00.133Z,1.08
2022-12-09T03:11:07.130Z,1.09
2022-12-09T03:13:17.621Z,1.11
2022-12-09T03:15:27.011Z,1.10
2022-12-09T03:17:36.236Z,1.10
2022-12-09T03:19:47.875Z,1.11
2022-12-09T03:21:59.807Z,1.10
2022-12-09T03:24:06.395Z,1.09
2022-12-09T03:26:11.403Z,1.11
2022-12-09T03:28:22.916Z,1.14
2022-12-09T03:30:28.654Z,1.16
2022-12-09T03:32:36.347Z,1.19
2022-12-09T03:34:52.082Z,1.23
2022-12-09T03:37:00.066Z,1.22
2022-12-09T03:39:07.001Z,1.29
2022-12-09T03:41:28.709Z,1.38
2022-12-09T03:43:40.006Z,1.44
2022-12-09T03:45:45.728Z,1.49
2022-12-09T03:47:50.732Z,1.57
2022-12-09T03:49:58.710Z,1.67
2022-12-09T03:52:08.723Z,1.68
2022-12-09T03:54:20.291Z,1.65
2022-12-09T03:56:29.990Z,1.70
2022-12-09T03:58:37.589Z,1.80
2022-12-09T04:00:42.952Z,1.90
2022-12-09T04:02:48.378Z,1.99
2022-12-09T04:04:54.297Z,2.04
2022-12-09T04:07:01.793Z,2.10
2022-12-09T04:09:07.593Z,2.13
2022-12-09T04:11:12.520Z,2.16
2022-12-09T04:13:17.367Z,2.08
2022-12-09T04:15:22.161Z,2.12
2022-12-09T04:17:27.234Z,2.15
2022-12-09T04:19:32.008Z,2.15
2022-12-09T04:21:38.116Z,2.16
2022-12-09T04:23:45.717Z,2.17
2022-12-09T04:25:52.401Z,2.18
2022-12-09T04:27:57.343Z,2.18
2022-12-09T04:30:02.385Z,2.10
2022-12-09T04:32:08.106Z,2.01
2022-12-09T04:34:13.419Z,2.01
2022-12-09T04:36:20.246Z,2.08
2022-12-09T04:38:25.275Z,2.07
2022-12-09T04:40:32.740Z,2.11
2022-12-09T04:42:37.739Z,2.13
2022-12-09T04:44:42.562Z,2.16
2022-12-09T04:46:47.917Z,2.17
2022-12-09T04:48:52.862Z,2.13
2022-12-09T04:50:57.934Z,2.13
2022-12-09T04:53:02.575Z,2.15
2022-12-09T04:55:09.955Z,2.17
2022-12-09T04:57:17.644Z,2.16
2022-12-09T04:59:22.578Z,2.13
2022-12-09T05:01:31.145Z,2.11
2022-12-09T05:03:37.032Z,2.01
2022-12-09T05:05:43.427Z,1.97
2022-12-09T05:07:49.231Z,1.94
2022-12-09T05:09:54.511Z,1.97
2022-12-09T05:12:02.920Z,2.00
2022-12-09T05:14:10.745Z,1.97
2022-12-09T05:16:20.085Z,1.94
2022-12-09T05:18:25.043Z,1.93
2022-12-09T05:20:30.118Z,1.84
2022-12-09T05:22:35.260Z,1.71
2022-12-09T05:24:41.234Z,1.64
2022-12-09T05:26:46.227Z,1.56
2022-12-09T05:28:51.829Z,1.54
2022-12-09T05:31:03.875Z,1.57
2022-12-09T05:33:09.293Z,1.51
2022-12-09T05:35:14.297Z,1.44
2022-12-09T05:37:19.398Z,1.34
2022-12-09T05:39:24.590Z,1.33
2022-12-09T05:41:29.749Z,1.28
2022-12-09T05:43:35.160Z,1.29
2022-12-09T05:45:40.360Z,1.31
2022-12-09T05:47:47.933Z,1.32
2022-12-09T05:49:53.384Z,1.31
2022-12-09T05:51:58.551Z,1.29
2022-12-09T05:54:04.579Z,1.27
2022-12-09T05:56:10.016Z,1.21
2022-12-09T05:58:14.951Z,1.18
2022-12-09T06:00:20.470Z,1.20
2022-12-09T06:02:25.499Z,1.25
2022-12-09T06:04:33.312Z,1.33
2022-12-09T06:06:38.766Z,1.34
2022-12-09T06:08:45.211Z,1.32
2022-12-09T06:10:50.404Z,1.35
2022-12-09T06:12:57.807Z,1.37
2022-12-09T06:15:02.845Z,1.42
2022-12-09T06:17:07.740Z,1.44
2022-12-09T06:19:14.089Z,1.46
2022-12-09T06:21:23.534Z,1.41
2022-12-09T06:23:28.795Z,1.41
2022-12-09T06:25:33.779Z,1.39
2022-12-09T06:27:38.998Z,1.43
2022-12-09T06:29:43.633Z,1.50
2022-12-09T06:31:48.899Z,1.60
2022-12-09T06:33:56.308Z,1.70
2022-12-09T06:36:04.718Z,1.79
2022-12-09T06:38:12.502Z,1.83
2022-12-09T06:40:17.491Z,1.84
2022-12-09T06:42:22.439Z,1.89
2022-12-09T06:44:28.030Z,1.92
2022-12-09T06:46:33.102Z,1.96
2022-12-09T06:48:38.760Z,1.97
2022-12-09T06:50:43.468Z,1.92
2022-12-09T06:52:48.426Z,1.89
2022-12-09T06:54:56.271Z,1.91
2022-12-09T06:57:01.310Z,1.91
2022-12-09T06:59:09.337Z,1.97
2022-12-09T07:01:16.458Z,2.00
2022-12-09T07:03:21.751Z,2.05
2022-12-09T07:05:27.756Z,2.07
2022-12-09T07:07:33.169Z,2.10
2022-12-09T07:09:38.492Z,2.10
2022-12-09T07:11:46.329Z,2.01
2022-12-09T07:13:51.570Z,1.92
2022-12-09T07:15:58.451Z,1.87
2022-12-09T07:18:03.697Z,1.86
2022-12-09T07:20:10.424Z,1.86
2022-12-09T07:22:16.102Z,1.88
2022-12-09T07:24:21.445Z,1.91
2022-12-09T07:26:26.343Z,1.94
2022-12-09T07:28:33.994Z,1.98
2022-12-09T07:30:40.353Z,1.99
2022-12-09T07:32:45.307Z,2.03
2022-12-09T07:34:51.024Z,2.05
2022-12-09T07:36:56.060Z,2.12
2022-12-09T07:39:03.392Z,2.12
2022-12-09T07:41:10.101Z,2.10
2022-12-09T07:43:15.029Z,2.12
2022-12-09T07:45:22.663Z,2.14
2022-12-09T07:47:28.064Z,2.19
2022-12-09T07:49:33.385Z,2.24
2022-12-09T07:51:38.907Z,2.31
2022-12-09T07:53:43.875Z,2.35
2022-12-09T07:55:49.017Z,2.36
2022-12-09T07:57:53.931Z,2.41
2022-12-09T07:59:59.318Z,2.40
2022-12-09T08:02:07.031Z,2.44
2022-12-09T08:04:13.363Z,2.48
2022-12-09T08:06:21.367Z,2.57
2022-12-09T08:08:26.611Z,2.62
2022-12-09T08:10:31.703Z,2.54
2022-12-09T08:12:36.849Z,2.56
2022-12-09T08:14:41.676Z,2.55
2022-12-09T08:16:46.965Z,2.61
2022-12-09T08:18:56.332Z,2.68
2022-12-09T08:21:02.136Z,2.70
2022-12-09T08:23:07.063Z,2.73
2022-12-09T08:25:13.735Z,2.75
2022-12-09T08:27:19.209Z,2.77
2022-12-09T08:29:24.417Z,2.74
2022-12-09T08:31:32.322Z,2.68
2022-12-09T08:33:42.386Z,2.69
2022-12-09T08:35:50.139Z,2.68
2022-12-09T08:37:55.270Z,2.67
2022-12-09T08:40:00.210Z,2.68
2022-12-09T08:42:05.570Z,2.71
2022-12-09T08:44:11.552Z,2.70
2022-12-09T08:46:17.893Z,2.74
2022-12-09T08:48:23.035Z,2.78
2022-12-09T08:50:28.274Z,2.75
2022-12-09T08:52:40.498Z,2.68
2022-12-09T08:54:46.318Z,2.77
2022-12-09T08:56:52.939Z,2.79
2022-12-09T08:58:58.867Z,2.93
2022-12-09T09:01:04.029Z,2.98
2022-12-09T09:03:09.445Z,3.04
2022-12-09T09:05:15.600Z,2.94
2022-12-09T09:07:21.174Z,2.95
2022-12-09T09:09:29.092Z,2.93
2022-12-09T09:11:34.536Z,2.84
2022-12-09T09:13:40.027Z,2.82
2022-12-09T09:15:45.496Z,2.91
2022-12-09T09:17:52.287Z,2.95
2022-12-09T09:19:58.722Z,2.87
2022-12-09T09:22:04.396Z,2.85
2022-12-09T09:24:11.371Z,2.80
2022-12-09T09:26:21.990Z,2.94
2022-12-09T09:28:31.003Z,2.90
2022-12-09T09:30:37.026Z,3.07
2022-12-09T09:32:42.187Z,3.23
2022-12-09T09:34:50.705Z,3.27
2022-12-09T09:36:56.560Z,3.36
2022-12-09T09:39:02.182Z,3.48
2022-12-09T09:41:19.673Z,3.53
2022-12-09T09:43:30.664Z,3.56
2022-12-09T09:45:35.995Z,3.57
2022-12-09T09:47:44.024Z,3.57
2022-12-09T09:49:57.918Z,3.40
2022-12-09T09:52:08.763Z,3.51
2022-12-09T09:54:16.701Z,3.55
2022-12-09T09:56:29.277Z,3.62
2022-12-09T09:58:44.287Z,3.53
2022-12-09T10:00:58.377Z,3.45
2022-12-09T10:03:07.328Z,3.51
2022-12-09T10:05:23.043Z,3.57
2022-12-09T10:07:39.974Z,3.58
2022-12-09T10:09:57.785Z,3.58
2022-12-09T10:12:06.955Z,3.58
2022-12-09T10:14:20.287Z,3.60
2022-12-09T10:16:29.691Z,3.69
2022-12-09T10:18:40.439Z,3.75
2022-12-09T10:20:46.264Z,3.77
2022-12-09T10:22:55.022Z,3.72
2022-12-09T10:25:02.490Z,3.75
2022-12-09T10:27:17.321Z,3.74
2022-12-09T10:29:31.758Z,3.78
2022-12-09T10:31:36.812Z,3.75
2022-12-09T10:33:42.937Z,3.77
2022-12-09T10:35:48.879Z,3.80
2022-12-09T10:37:59.525Z,3.88
2022-12-09T10:40:22.980Z,3.88
2022-12-09T10:42:41.819Z,3.83
2022-12-09T10:44:49.843Z,3.83
2022-12-09T10:47:01.415Z,3.76
2022-12-09T10:49:06.678Z,3.73
2022-12-09T10:51:15.096Z,3.74
2022-12-09T10:53:20.160Z,3.78
2022-12-09T10:55:30.570Z,3.85
2022-12-09T10:57:35.455Z,3.79
2022-12-09T10:59:42.427Z,3.80
2022-12-09T11:01:55.739Z,3.89
2022-12-09T11:04:15.888Z,3.86
2022-12-09T11:06:27.185Z,3.88
2022-12-09T11:08:33.217Z,3.92
2022-12-09T11:10:39.941Z,3.91
2022-12-09T11:12:45.165Z,4.01
2022-12-09T11:14:56.260Z,4.02
2022-12-09T11:17:16.095Z,4.00
2022-12-09T11:19:30.886Z,3.96
2022-12-09T11:21:38.753Z,3.91
2022-12-09T11:24:02.503Z,3.96
2022-12-09T11:26:10.361Z,3.85
2022-12-09T11:28:26.931Z,3.83
2022-12-09T11:30:35.074Z,3.81
2022-12-09T11:33:03.497Z,3.76
2022-12-09T11:35:09.467Z,3.75
2022-12-09T11:37:14.615Z,3.77
2022-12-09T11:39:22.413Z,3.81
2022-12-09T11:41:42.577Z,3.66
2022-12-09T11:43:51.721Z,3.64
2022-12-09T11:45:56.707Z,3.66
2022-12-09T11:48:29.824Z,3.61
2022-12-09T11:50:42.713Z,3.56
2022-12-09T11:52:48.307Z,3.62
2022-12-09T11:54:59.430Z,3.63
2022-12-09T11:57:06.105Z,3.72
2022-12-09T11:59:18.013Z,3.75
2022-12-09T12:01:29.143Z,3.82
2022-12-09T12:03:40.497Z,3.88
2022-12-09T12:05:47.585Z,3.94
2022-12-09T12:08:02.126Z,3.94
2022-12-09T12:10:15.949Z,3.95
2022-12-09T12:12:26.720Z,3.97
2022-12-09T12:14:33.052Z,4.07
2022-12-09T12:16:49.025Z,4.17
2022-12-09T12:19:01.958Z,4.21
2022-12-09T12:21:22.693Z,4.04
2022-12-09T12:23:38.890Z,4.05
2022-12-09T12:25:54.215Z,4.21
2022-12-09T12:28:15.805Z,4.44
2022-12-09T12:30:24.369Z,4.51
2022-12-09T12:32:40.407Z,4.63
2022-12-09T12:35:02.548Z,4.63
2022-12-09T12:37:25.878Z,4.63
2022-12-09T12:39:47.204Z,4.58
2022-12-09T12:41:58.775Z,4.60
2022-12-09T12:44:25.349Z,4.63
2022-12-09T12:46:44.675Z,4.51
2022-12-09T12:49:17.541Z,4.55
2022-12-09T12:51:36.966Z,4.47
2022-12-09T12:53:49.967Z,4.30
2022-12-09T12:56:02.532Z,4.31
2022-12-09T12:58:13.919Z,4.28
2022-12-09T13:00:24.110Z,4.45
2022-12-09T13:02:41.834Z,4.53
2022-12-09T13:04:54.582Z,4.59
2022-12-09T13:07:08.806Z,4.59
2022-12-09T13:09:18.848Z,4.53
2022-12-09T13:11:26.712Z,4.46
2022-12-09T13:13:37.653Z,4.42
2022-12-09T13:15:48.793Z,4.32
2022-12-09T13:17:54.547Z,4.42
2022-12-09T13:20:04.041Z,4.50
2022-12-09T13:22:24.485Z,4.66
2022-12-09T13:24:38.068Z,4.48
2022-12-09T13:26:51.097Z,4.63
2022-12-09T13:29:02.542Z,4.61
2022-12-09T13:31:11.356Z,4.47
2022-12-09T13:33:31.708Z,4.40
2022-12-09T13:35:43.772Z,4.30
2022-12-09T13:38:02.440Z,4.25
2022-12-09T13:40:30.837Z,4.17
2022-12-09T13:42:56.703Z,4.18
2022-12-09T13:45:08.298Z,4.03
2022-12-09T13:47:27.630Z,4.01
2022-12-09T13:49:32.505Z,4.08
2022-12-09T13:51:48.453Z,4.11
2022-12-09T13:54:07.094Z,4.04
2022-12-09T13:56:21.679Z,4.07
2022-12-09T13:58:46.949Z,4.01
2022-12-09T14:01:06.353Z,4.10
2022-12-09T14:03:28.304Z,4.14
2022-12-09T14:05:39.349Z,4.18
2022-12-09T14:07:51.312Z,4.13
2022-12-09T14:10:03.061Z,4.09
2022-12-09T14:12:09.916Z,4.12
2022-12-09T14:14:56.672Z,4.15
2022-12-09T14:17:03.136Z,4.11
2022-12-09T14:19:49.867Z,4.17
2022-12-09T14:22:24.300Z,4.09
2022-12-09T14:24:38.163Z,4.09
2022-12-09T14:26:47.898Z,4.08
2022-12-09T14:28:58.413Z,4.07
2022-12-09T14:31:08.641Z,4.07
2022-12-09T14:33:25.317Z,4.08
2022-12-09T14:35:41.869Z,4.03
2022-12-09T14:38:07.190Z,4.06
2022-12-09T14:40:29.275Z,4.03
2022-12-09T14:42:50.660Z,4.00
2022-12-09T14:45:03.040Z,3.98
2022-12-09T14:47:19.334Z,3.94
2022-12-09T14:49:26.479Z,3.85
2022-12-09T14:51:39.515Z,3.79
2022-12-09T14:53:44.850Z,3.73
2022-12-09T14:55:49.662Z,3.78
2022-12-09T14:58:00.780Z,3.78
2022-12-09T15:00:08.795Z,3.76
2022-12-09T15:02:23.155Z,3.81
2022-12-09T15:04:33.310Z,3.74
2022-12-09T15:06:38.156Z,3.61
2022-12-09T15:08:44.343Z,3.63
2022-12-09T15:10:49.120Z,3.62
2022-12-09T15:12:58.934Z,3.70
2022-12-09T15:15:09.379Z,3.74
2022-12-09T15:17:23.453Z,3.74
2022-12-09T15:19:59.151Z,3.70
2022-12-09T15:22:00.656Z,3.66
2022-12-09T15:24:06.384Z,3.62
2022-12-09T15:26:24.701Z,3.60
2022-12-09T15:28:35.121Z,3.61
2022-12-09T15:30:40.948Z,3.54
2022-12-09T15:32:47.811Z,3.56
2022-12-09T15:34:53.202Z,3.48
2022-12-09T15:37:00.642Z,3.50
2022-12-09T15:39:09.603Z,3.51
2022-12-09T15:41:26.898Z,3.46
2022-12-09T15:43:37.288Z,3.45
2022-12-09T15:45:46.364Z,3.47
2022-12-09T15:47:54.564Z,3.46
2022-12-09T15:50:08.403Z,3.47
2022-12-09T15:52:14.686Z,3.42
2022-12-09T15:54:27.276Z,3.42
2022-12-09T15:56:38.450Z,3.44
2022-12-09T15:58:51.028Z,3.43
2022-12-09T16:01:00.036Z,3.47
2022-12-09T16:03:04.864Z,3.50
2022-12-09T16:05:12.735Z,3.53
2022-12-09T16:07:22.221Z,3.55
2022-12-09T16:09:27.076Z,3.53
2022-12-09T16:11:39.856Z,3.55
2022-12-09T16:14:05.513Z,3.52
2022-12-09T16:16:26.940Z,3.48
2022-12-09T16:18:36.300Z,3.38
2022-12-09T16:20:45.519Z,3.39
2022-12-09T16:22:52.411Z,3.38
2022-12-09T16:25:14.512Z,3.34
2022-12-09T16:27:24.689Z,3.29
2022-12-09T16:29:36.353Z,3.31
2022-12-09T16:31:41.263Z,3.18
2022-12-09T16:33:50.868Z,3.21
2022-12-09T16:36:02.354Z,3.26
2022-12-09T16:38:19.226Z,3.29
2022-12-09T16:40:53.908Z,3.23
2022-12-09T16:43:22.592Z,3.21
2022-12-09T16:45:37.963Z,3.22
2022-12-09T16:47:42.876Z,3.22
2022-12-09T16:49:49.777Z,3.23
2022-12-09T16:51:54.609Z,3.20
2022-12-09T16:54:02.871Z,3.16
2022-12-09T16:56:08.076Z,3.12
2022-12-09T16:58:15.715Z,3.04
2022-12-09T17:00:21.433Z,2.99
2022-12-09T17:02:35.957Z,3.00
2022-12-09T17:04:43.740Z,2.98
2022-12-09T17:07:04.027Z,2.94
2022-12-09T17:09:08.982Z,2.74
2022-12-09T17:11:16.938Z,2.78
2022-12-09T17:13:21.824Z,2.82
2022-12-09T17:15:29.634Z,2.81
2022-12-09T17:17:37.085Z,2.83
2022-12-09T17:19:44.251Z,2.83
2022-12-09T17:21:49.257Z,2.86
2022-12-09T17:24:03.373Z,2.88
2022-12-09T17:26:11.038Z,2.86
2022-12-09T17:28:15.874Z,2.79
2022-12-09T17:30:20.819Z,2.78
2022-12-09T17:32:26.548Z,2.81
2022-12-09T17:34:34.169Z,2.72
2022-12-09T17:36:39.053Z,2.74
2022-12-09T17:38:44.643Z,2.78
2022-12-09T17:40:49.837Z,2.61
2022-12-09T17:42:54.378Z,2.59
2022-12-09T17:45:01.024Z,2.55
2022-12-09T17:47:05.790Z,2.58
2022-12-09T17:49:10.573Z,2.59
2022-12-09T17:51:19.283Z,2.57
2022-12-09T17:53:24.083Z,2.38
2022-12-09T17:55:29.179Z,2.38
2022-12-09T17:57:33.897Z,2.39
2022-12-09T17:59:38.901Z,2.35
2022-12-09T18:01:44.055Z,2.30
2022-12-09T18:03:57.880Z,2.35
2022-12-09T18:06:05.180Z,2.36
2022-12-09T18:08:12.719Z,2.27
2022-12-09T18:10:18.062Z,2.21
2022-12-09T18:12:23.133Z,2.21
2022-12-09T18:14:28.846Z,2.19
2022-12-09T18:16:34.064Z,2.17
2022-12-09T18:18:38.982Z,2.18
2022-12-09T18:20:43.804Z,2.12
2022-12-09T18:22:48.835Z,2.06
2022-12-09T18:24:56.672Z,2.06
2022-12-09T18:27:01.521Z,2.07
2022-12-09T18:29:06.403Z,1.93
2022-12-09T18:31:13.150Z,1.92
2022-12-09T18:33:18.032Z,1.80
2022-12-09T18:35:22.830Z,1.83
2022-12-09T18:37:27.718Z,1.82
2022-12-09T18:39:32.615Z,1.86
2022-12-09T18:41:39.998Z,1.89
2022-12-09T18:43:46.869Z,1.84
2022-12-09T18:45:51.765Z,1.82
2022-12-09T18:47:57.043Z,1.80
2022-12-09T18:50:01.870Z,1.78
2022-12-09T18:52:06.850Z,1.64
2022-12-09T18:54:13.478Z,1.69
2022-12-09T18:56:19.741Z,1.60
2022-12-09T18:58:49.542Z,1.54
2022-12-09T19:00:52.216Z,1.55
2022-12-09T19:02:57.142Z,1.53
2022-12-09T19:05:02.040Z,1.54
2022-12-09T19:07:06.986Z,1.56
2022-12-09T19:09:14.490Z,1.45
2022-12-09T19:11:19.626Z,1.52
2022-12-09T19:13:26.993Z,1.53
2022-12-09T19:15:31.942Z,1.58
2022-12-09T19:17:37.128Z,1.61
2022-12-09T19:19:42.027Z,1.59
2022-12-09T19:21:47.673Z,1.61
2022-12-09T19:23:53.182Z,1.58
2022-12-09T19:25:57.916Z,1.59
2022-12-09T19:28:02.684Z,1.61
2022-12-09T19:30:11.267Z,1.62
2022-12-09T19:32:51.047Z,1.64
2022-12-09T19:34:41.440Z,1.64
2022-12-09T19:36:47.824Z,1.66
2022-12-09T19:38:52.724Z,1.58
2022-12-09T19:41:00.087Z,1.50
2022-12-09T19:43:04.904Z,1.49
2022-12-09T19:45:14.463Z,1.43
2022-12-09T19:47:19.589Z,1.43
2022-12-09T19:49:25.997Z,1.48
2022-12-09T19:51:30.993Z,1.52
2022-12-09T19:53:35.898Z,1.54
2022-12-09T19:55:41.286Z,1.53
2022-12-09T19:57:46.067Z,1.48
2022-12-09T19:59:50.853Z,1.46
2022-12-09T20:01:58.541Z,1.39
2022-12-09T20:04:25.255Z,1.38
2022-12-09T20:06:30.761Z,1.40
2022-12-09T20:08:35.410Z,1.41
2022-12-09T20:10:46.221Z,1.41
2022-12-09T20:12:51.149Z,1.43
2022-12-09T20:14:55.949Z,1.42
2022-12-09T20:17:04.371Z,1.38
2022-12-09T20:19:09.247Z,1.38
2022-12-09T20:21:16.157Z,1.27
2022-12-09T20:23:20.968Z,1.30
2022-12-09T20:25:25.739Z,1.31
2022-12-09T20:27:30.576Z,1.33
2022-12-09T20:29:38.039Z,1.36
2022-12-09T20:31:45.842Z,1.38
2022-12-09T20:33:55.638Z,1.38
2022-12-09T20:36:06.412Z,1.31
2022-12-09T20:38:11.156Z,1.33
2022-12-09T20:40:16.025Z,1.25
2022-12-09T20:42:20.805Z,1.27
2022-12-09T20:44:25.634Z,1.28
2022-12-09T20:46:32.317Z,1.30
2022-12-09T20:48:38.106Z,1.30
2022-12-09T20:50:45.487Z,1.31
2022-12-09T20:52:50.396Z,1.29
2022-12-09T20:54:56.486Z,1.26
2022-12-09T20:57:01.714Z,1.25
2022-12-09T20:59:06.833Z,1.22
2022-12-09T21:01:14.976Z,1.19
2022-12-09T21:03:20.562Z,1.17
2022-12-09T21:05:25.348Z,1.15
2022-12-09T21:07:32.692Z,1.17
2022-12-09T21:09:37.520Z,1.16
2022-12-09T21:11:42.539Z,1.15
2022-12-09T21:13:53.672Z,1.11
2022-12-09T21:16:06.483Z,1.11
2022-12-09T21:18:11.532Z,1.01
2022-12-09T21:20:16.740Z,0.91
2022-12-09T21:22:21.638Z,0.88
2022-12-09T21:24:29.052Z,0.86
2022-12-09T21:26:34.047Z,0.91
2022-12-09T21:28:40.287Z,0.93
2022-12-09T21:30:45.129Z,0.94
2022-12-09T21:32:49.878Z,0.96
2022-12-09T21:34:58.069Z,1.07
2022-12-09T21:37:02.854Z,1.16
2022-12-09T21:39:09.619Z,1.20
2022-12-09T21:41:18.682Z,1.30
2022-12-09T21:43:23.475Z,1.31
2022-12-09T21:45:28.402Z,1.36
2022-12-09T21:47:33.200Z,1.38
2022-12-09T21:49:37.938Z,1.41
2022-12-09T21:51:43.036Z,1.44
2022-12-09T21:53:48.201Z,1.32
2022-12-09T21:55:57.506Z,1.17
2022-12-09T21:58:05.352Z,1.17
2022-12-09T22:00:13.636Z,1.05
2022-12-09T22:02:18.514Z,0.95
2022-12-09T22:04:23.866Z,0.82
2022-12-09T22:06:29.520Z,0.89
2022-12-09T22:08:34.452Z,0.96
2022-12-09T22:10:39.863Z,0.97
2022-12-09T22:12:44.661Z,0.92
2022-12-09T22:14:55.686Z,0.76
2022-12-09T22:17:01.103Z,0.73
2022-12-09T22:19:09.042Z,0.56
2022-12-09T22:21:24.850Z,0.69
2022-12-09T22:23:30.636Z,0.74
2022-12-09T22:25:35.440Z,0.78
2022-12-09T22:27:41.425Z,0.81
2022-12-09T22:29:46.268Z,0.80
2022-12-09T22:31:53.665Z,0.91
2022-12-09T22:34:02.604Z,0.94
2022-12-09T22:36:08.205Z,0.96
2022-12-09T22:38:14.714Z,0.95
2022-12-09T22:40:20.484Z,0.96
2022-12-09T22:42:25.528Z,0.93
2022-12-09T22:44:30.374Z,0.93
2022-12-09T22:46:36.784Z,0.99
2022-12-09T22:48:44.641Z,1.02
2022-12-09T22:50:49.447Z,1.05
2022-12-09T22:52:54.335Z,1.08
2022-12-09T22:54:59.088Z,1.16
2022-12-09T22:57:03.840Z,1.22
2022-12-09T22:59:09.203Z,1.26
2022-12-09T23:01:14.909Z,1.17
2022-12-09T23:03:19.839Z,1.11
2022-12-09T23:05:33.225Z,1.12
2022-12-09T23:07:40.297Z,1.18
2022-12-09T23:09:45.435Z,1.24
2022-12-09T23:11:51.629Z,1.26
2022-12-09T23:13:57.123Z,1.26
2022-12-09T23:16:03.645Z,1.27
2022-12-09T23:18:08.909Z,1.31
2022-12-09T23:20:14.806Z,1.24
2022-12-09T23:22:22.200Z,1.11
2022-12-09T23:24:27.024Z,1.00
2022-12-09T23:26:33.905Z,0.98
2022-12-09T23:28:39.884Z,0.99
2022-12-09T23:30:44.753Z,1.04
2022-12-09T23:32:50.003Z,1.06
2022-12-09T23:34:54.809Z,1.07
2022-12-09T23:36:59.710Z,1.09
2022-12-09T23:39:11.103Z,1.11
2022-12-09T23:41:17.400Z,1.14
2022-12-09T23:43:22.211Z,1.17
2022-12-09T23:45:27.040Z,1.20
2022-12-09T23:47:31.795Z,1.19
2022-12-09T23:49:36.949Z,1.18
2022-12-09T23:51:44.146Z,1.17
2022-12-09T23:53:50.534Z,1.17
2022-12-09T23:55:58.095Z,1.10
2022-12-09T23:58:02.932Z,1.04
